createdAt,value
2023-02-27T00:00:32.900Z,57.00
2023-02-27T00:03:20.913Z,57.04
2023-02-27T00:05:49.007Z,56.82
2023-02-27T00:08:16.680Z,56.79
2023-02-27T00:10:44.409Z,56.70
2023-02-27T00:13:12.053Z,56.70
2023-02-27T00:15:41.067Z,56.95
2023-02-27T00:18:09.004Z,56.68
2023-02-27T00:20:38.262Z,56.56
2023-02-27T00:23:06.960Z,56.47
2023-02-27T00:25:35.351Z,56.27
2023-02-27T00:28:04.419Z,56.31
2023-02-27T00:30:32.763Z,56.29
2023-02-27T00:33:00.881Z,56.43
2023-02-27T00:35:28.680Z,56.01
2023-02-27T00:37:56.405Z,56.02
2023-02-27T00:40:26.714Z,56.07
2023-02-27T00:42:54.921Z,56.11
2023-02-27T00:45:22.706Z,56.00
2023-02-27T00:47:50.439Z,55.99
2023-02-27T00:50:18.346Z,56.00
2023-02-27T00:52:46.145Z,56.04
2023-02-27T00:55:14.091Z,56.01
2023-02-27T00:57:41.993Z,56.11
2023-02-27T01:00:11.023Z,56.08
2023-02-27T01:02:39.032Z,56.04
2023-02-27T01:05:09.232Z,56.52
2023-02-27T01:07:37.684Z,56.45
2023-02-27T01:10:06.845Z,56.06
2023-02-27T01:12:34.767Z,55.88
2023-02-27T01:15:03.578Z,55.90
2023-02-27T01:17:31.897Z,55.97
2023-02-27T01:19:59.573Z,55.74
2023-02-27T01:22:27.300Z,56.05
2023-02-27T01:24:55.146Z,56.18
2023-02-27T01:27:23.055Z,56.24
2023-02-27T01:29:50.826Z,55.97
2023-02-27T01:32:18.888Z,55.95
2023-02-27T01:34:46.617Z,56.02
2023-02-27T01:37:14.304Z,55.64
2023-02-27T01:39:43.873Z,55.52
2023-02-27T01:42:24.297Z,55.80
2023-02-27T01:45:20.627Z,55.63
2023-02-27T01:47:51.253Z,55.73
2023-02-27T01:50:19.640Z,55.62
2023-02-27T01:52:53.226Z,55.60
2023-02-27T01:55:21.770Z,55.62
2023-02-27T01:57:49.807Z,55.97
2023-02-27T02:00:18.484Z,55.77
2023-02-27T02:03:28.880Z,55.92
2023-02-27T02:05:58.676Z,56.05
2023-02-27T02:08:28.912Z,56.26
2023-02-27T02:10:58.317Z,56.21
2023-02-27T02:13:26.089Z,56.31
2023-02-27T02:16:00.770Z,56.23
2023-02-27T02:18:41.505Z,56.37
2023-02-27T02:21:31.082Z,56.45
2023-02-27T02:24:40.897Z,56.47
2023-02-27T02:27:19.082Z,56.55
2023-02-27T02:30:06.253Z,56.61
2023-02-27T02:32:37.295Z,56.82
2023-02-27T02:35:26.818Z,56.90
2023-02-27T02:38:06.618Z,56.80
2023-02-27T02:40:57.233Z,56.99
2023-02-27T02:43:30.620Z,57.04
2023-02-27T02:46:08.356Z,57.09
2023-02-27T02:48:49.122Z,57.12
2023-02-27T02:51:40.494Z,57.54
2023-02-27T02:54:08.190Z,57.33
2023-02-27T02:56:40.450Z,57.50
2023-02-27T02:59:19.871Z,57.59
2023-02-27T03:01:57.768Z,57.47
2023-02-27T03:04:34.862Z,57.43
2023-02-27T03:07:19.918Z,57.49
2023-02-27T03:09:58.693Z,57.74
2023-02-27T03:12:27.402Z,57.74
2023-02-27T03:15:20.057Z,57.64
2023-02-27T03:17:51.322Z,57.71
2023-02-27T03:20:31.383Z,57.59
2023-02-27T03:23:01.968Z,57.59
2023-02-27T03:25:30.495Z,57.69
2023-02-27T03:28:01.537Z,57.71
2023-02-27T03:30:45.175Z,57.85
2023-02-27T03:33:33.081Z,57.74
2023-02-27T03:36:49.374Z,57.76
2023-02-27T03:39:24.205Z,57.64
2023-02-27T03:42:09.127Z,57.82
2023-02-27T03:45:05.187Z,57.73
2023-02-27T03:47:33.513Z,57.84
2023-02-27T03:50:01.216Z,57.79
2023-02-27T03:52:30.200Z,57.67
2023-02-27T03:55:08.368Z,57.76
2023-02-27T03:57:42.223Z,57.72
2023-02-27T04:00:14.221Z,57.76
2023-02-27T04:02:44.932Z,57.81
2023-02-27T04:05:14.857Z,58.02
2023-02-27T04:08:10.491Z,57.94
2023-02-27T04:10:51.963Z,57.85
2023-02-27T04:14:05.617Z,57.97
2023-02-27T04:16:37.152Z,58.08
2023-02-27T04:19:10.836Z,57.95
2023-02-27T04:21:44.041Z,57.87
2023-02-27T04:24:51.684Z,58.06
2023-02-27T04:27:39.334Z,58.01
2023-02-27T04:30:29.034Z,58.06
2023-02-27T04:33:08.222Z,58.13
2023-02-27T04:35:52.717Z,58.38
2023-02-27T04:38:30.226Z,58.29
2023-02-27T04:41:03.321Z,58.35
2023-02-27T04:43:31.470Z,58.41
2023-02-27T04:46:00.969Z,58.48
2023-02-27T04:48:55.663Z,58.51
2023-02-27T04:51:27.463Z,58.67
2023-02-27T04:54:00.469Z,58.78
2023-02-27T04:56:33.828Z,58.73
2023-02-27T04:59:13.672Z,58.92
2023-02-27T05:01:44.479Z,59.00
2023-02-27T05:04:15.805Z,58.92
2023-02-27T05:06:44.751Z,59.01
2023-02-27T05:09:31.908Z,59.06
2023-02-27T05:12:04.164Z,59.16
2023-02-27T05:14:36.189Z,58.99
2023-02-27T05:17:15.328Z,58.96
2023-02-27T05:19:44.324Z,59.03
2023-02-27T05:22:12.424Z,58.98
2023-02-27T05:25:08.356Z,59.05
2023-02-27T05:27:49.764Z,59.21
2023-02-27T05:30:23.362Z,59.18
2023-02-27T05:32:57.983Z,59.16
2023-02-27T05:35:36.040Z,58.98
2023-02-27T05:38:12.784Z,59.05
2023-02-27T05:40:51.515Z,59.04
2023-02-27T05:43:23.306Z,59.05
2023-02-27T05:45:56.976Z,59.23
2023-02-27T05:48:28.171Z,59.10
2023-02-27T05:50:56.298Z,59.18
2023-02-27T05:53:27.326Z,59.25
2023-02-27T05:55:57.085Z,59.35
2023-02-27T05:58:35.615Z,59.52
2023-02-27T06:01:09.009Z,59.39
2023-02-27T06:03:38.070Z,59.50
2023-02-27T06:06:16.760Z,59.57
2023-02-27T06:08:45.402Z,59.57
2023-02-27T06:11:13.246Z,59.56
2023-02-27T06:13:42.220Z,59.62
2023-02-27T06:16:17.368Z,59.71
2023-02-27T06:18:45.076Z,59.51
2023-02-27T06:21:13.808Z,59.80
2023-02-27T06:23:41.763Z,60.02
2023-02-27T06:26:13.921Z,59.89
2023-02-27T06:28:42.534Z,59.81
2023-02-27T06:31:10.951Z,59.61
2023-02-27T06:33:38.859Z,59.79
2023-02-27T06:36:06.809Z,59.78
2023-02-27T06:38:34.698Z,59.98
2023-02-27T06:41:04.374Z,59.90
2023-02-27T06:43:34.743Z,60.02
2023-02-27T06:46:03.008Z,60.13
2023-02-27T06:48:30.765Z,60.02
2023-02-27T06:50:58.483Z,59.97
2023-02-27T06:53:26.250Z,60.10
2023-02-27T06:55:53.903Z,60.08
2023-02-27T06:58:21.697Z,60.15
2023-02-27T07:00:49.418Z,60.06
2023-02-27T07:03:17.144Z,60.09
2023-02-27T07:05:45.155Z,60.04
2023-02-27T07:08:12.877Z,60.06
2023-02-27T07:10:43.990Z,60.09
2023-02-27T07:13:11.672Z,60.05
2023-02-27T07:15:40.025Z,59.94
2023-02-27T07:18:07.756Z,59.91
2023-02-27T07:20:35.481Z,59.95
2023-02-27T07:23:03.651Z,60.01
2023-02-27T07:25:31.384Z,59.97
2023-02-27T07:27:59.210Z,60.14
2023-02-27T07:30:26.953Z,59.76
2023-02-27T07:32:54.642Z,59.56
2023-02-27T07:35:22.738Z,59.50
2023-02-27T07:37:50.513Z,59.48
2023-02-27T07:40:18.263Z,59.23
2023-02-27T07:42:48.581Z,59.22
2023-02-27T07:45:20.810Z,59.14
2023-02-27T07:47:48.638Z,59.06
2023-02-27T07:50:16.818Z,58.90
2023-02-27T07:52:44.551Z,59.07
2023-02-27T07:55:13.582Z,58.71
2023-02-27T07:57:41.389Z,58.82
2023-02-27T08:00:10.414Z,58.75
2023-02-27T08:02:41.015Z,58.72
2023-02-27T08:05:09.065Z,58.62
2023-02-27T08:07:36.755Z,58.86
2023-02-27T08:10:05.439Z,58.99
2023-02-27T08:12:33.239Z,58.92
2023-02-27T08:15:01.132Z,58.94
2023-02-27T08:17:28.893Z,58.94
2023-02-27T08:19:56.749Z,59.04
2023-02-27T08:22:24.413Z,58.93
2023-02-27T08:24:52.104Z,58.77
2023-02-27T08:27:19.849Z,58.60
2023-02-27T08:29:47.589Z,58.41
2023-02-27T08:32:15.415Z,58.27
2023-02-27T08:34:43.218Z,58.29
2023-02-27T08:37:10.838Z,58.22
2023-02-27T08:39:38.532Z,58.28
2023-02-27T08:42:07.332Z,58.38
2023-02-27T08:44:35.194Z,58.07
2023-02-27T08:47:03.186Z,58.35
2023-02-27T08:49:30.829Z,58.17
2023-02-27T08:51:59.031Z,58.19
2023-02-27T08:54:27.170Z,57.83
2023-02-27T08:56:55.042Z,57.50
2023-02-27T08:59:22.799Z,57.10
2023-02-27T14:02:57.880Z,51.70
2023-02-27T14:05:47.828Z,51.58
2023-02-27T14:08:27.153Z,51.81
2023-02-27T14:11:09.991Z,51.96
2023-02-27T14:13:57.671Z,51.78
2023-02-27T14:16:40.850Z,51.87
2023-02-27T14:19:11.999Z,51.69
2023-02-27T14:21:56.052Z,51.02
2023-02-27T14:24:33.344Z,51.66
2023-02-27T14:27:03.177Z,51.53
2023-02-27T14:29:33.614Z,52.45
2023-02-27T14:32:07.892Z,51.93
2023-02-27T14:34:36.593Z,51.76
2023-02-27T14:37:07.156Z,51.54
2023-02-27T14:39:36.796Z,51.38
2023-02-27T14:42:20.318Z,51.32
2023-02-27T14:44:48.933Z,51.66
2023-02-27T14:47:24.582Z,51.41
2023-02-27T14:49:52.866Z,51.42
2023-02-27T14:52:23.868Z,51.61
2023-02-27T14:54:53.428Z,51.14
2023-02-27T14:57:24.217Z,51.85
2023-02-27T14:59:53.879Z,51.25
2023-02-27T15:02:24.914Z,51.21
2023-02-27T15:04:56.630Z,51.34
2023-02-27T15:07:26.816Z,50.20
2023-02-27T15:09:57.492Z,50.16
2023-02-27T15:12:26.769Z,50.13
2023-02-27T15:14:59.910Z,50.20
2023-02-27T15:17:39.359Z,49.62
2023-02-27T15:20:30.172Z,50.81
2023-02-27T15:22:59.614Z,50.24
2023-02-27T15:25:39.699Z,50.60
2023-02-27T15:28:27.712Z,50.71
2023-02-27T15:30:56.596Z,50.34
2023-02-27T15:33:32.520Z,50.91
2023-02-27T15:36:00.831Z,50.98
2023-02-27T15:38:32.642Z,50.89
2023-02-27T15:41:02.564Z,51.25
2023-02-27T15:43:30.739Z,51.46
2023-02-27T15:45:58.572Z,51.73
2023-02-27T15:48:26.571Z,51.87
2023-02-27T15:50:58.022Z,51.92
2023-02-27T15:53:28.311Z,52.03
2023-02-27T15:56:01.728Z,51.99
2023-02-27T15:58:33.244Z,51.79
2023-02-27T16:01:21.115Z,51.91
2023-02-27T16:03:51.451Z,51.92
2023-02-27T16:06:28.765Z,51.93
2023-02-27T16:09:00.487Z,52.09
2023-02-27T16:11:31.373Z,52.06
2023-02-27T16:13:59.486Z,52.24
2023-02-27T16:16:36.105Z,51.86
2023-02-27T16:19:27.586Z,51.65
2023-02-27T16:22:15.237Z,51.50
2023-02-27T16:24:44.385Z,51.45
2023-02-27T16:27:29.479Z,51.70
2023-02-27T16:30:02.432Z,51.47
2023-02-27T16:32:35.482Z,51.36
2023-02-27T16:35:08.724Z,51.94
2023-02-27T16:37:39.312Z,51.96
2023-02-27T16:40:24.360Z,51.78
2023-02-27T16:42:52.666Z,51.27
2023-02-27T16:45:26.517Z,51.67
2023-02-27T16:47:56.850Z,51.76
2023-02-27T16:50:28.798Z,51.70
2023-02-27T16:52:57.474Z,51.49
2023-02-27T16:55:25.612Z,51.24
2023-02-27T16:57:53.466Z,51.61
2023-02-27T17:00:22.862Z,51.54
2023-02-27T17:02:51.244Z,51.35
2023-02-27T17:05:19.148Z,51.51
2023-02-27T17:07:47.242Z,51.73
2023-02-27T17:10:17.797Z,51.84
2023-02-27T17:12:48.305Z,51.85
2023-02-27T17:15:16.482Z,51.59
2023-02-27T17:17:45.044Z,51.66
2023-02-27T17:20:15.243Z,51.61
2023-02-27T17:22:44.980Z,51.47
2023-02-27T17:25:13.478Z,51.73
2023-02-27T17:27:44.896Z,51.82
2023-02-27T17:30:14.483Z,51.70
2023-02-27T17:32:42.666Z,51.67
2023-02-27T17:35:10.839Z,51.70
2023-02-27T17:37:38.819Z,51.71
2023-02-27T17:40:08.292Z,51.58
2023-02-27T17:42:36.847Z,51.27
2023-02-27T17:45:06.459Z,51.24
2023-02-27T17:47:35.090Z,51.28
2023-02-27T17:50:04.920Z,51.65
2023-02-27T17:52:35.885Z,51.59
2023-02-27T17:55:04.276Z,51.37
2023-02-27T17:57:35.711Z,51.44
2023-02-27T18:00:06.012Z,51.35
2023-02-27T18:02:34.054Z,51.26
2023-02-27T18:05:04.642Z,51.07
2023-02-27T18:07:32.823Z,51.50
2023-02-27T18:10:00.560Z,51.42
2023-02-27T18:12:28.356Z,51.28
2023-02-27T18:14:56.538Z,51.09
2023-02-27T18:17:24.323Z,51.00
2023-02-27T18:19:52.063Z,51.17
2023-02-27T18:22:21.821Z,51.27
2023-02-27T18:24:53.364Z,51.54
2023-02-27T18:27:24.864Z,51.32
2023-02-27T18:29:52.717Z,51.49
2023-02-27T18:32:21.020Z,51.64
2023-02-27T18:34:49.127Z,51.69
2023-02-27T18:37:16.834Z,51.90
2023-02-27T18:39:44.620Z,51.85
2023-02-27T18:42:12.309Z,51.88
2023-02-27T18:44:41.389Z,51.92
2023-02-27T18:47:09.812Z,51.98
2023-02-27T18:49:38.006Z,51.89
2023-02-27T18:52:05.903Z,51.98
2023-02-27T18:54:33.748Z,52.07
2023-02-27T18:57:01.660Z,52.10
2023-02-27T18:59:29.424Z,52.17
2023-02-27T19:01:58.083Z,52.29
2023-02-27T19:04:26.077Z,52.43
2023-02-27T19:06:53.936Z,52.58
2023-02-27T19:09:22.347Z,52.60
2023-02-27T19:11:50.429Z,52.78
2023-02-27T19:14:18.423Z,52.75
2023-02-27T19:16:46.363Z,52.71
2023-02-27T19:19:15.289Z,52.82
2023-02-27T19:21:43.723Z,52.86
2023-02-27T19:24:12.830Z,52.91
2023-02-27T19:26:40.944Z,53.17
2023-02-27T19:29:08.824Z,53.27
2023-02-27T19:31:36.994Z,53.26
2023-02-27T19:34:05.373Z,53.45
2023-02-27T19:36:34.597Z,53.60
2023-02-27T19:39:03.762Z,53.57
2023-02-27T19:41:33.405Z,53.63
2023-02-27T19:44:01.581Z,53.73
2023-02-27T19:46:32.359Z,53.90
2023-02-27T19:49:05.534Z,54.07
2023-02-27T19:51:33.930Z,54.19
2023-02-27T19:54:01.774Z,54.10
2023-02-27T19:56:30.694Z,54.30
2023-02-27T19:59:00.977Z,54.48
2023-02-27T20:01:34.423Z,54.69
2023-02-27T20:04:03.456Z,54.90
2023-02-27T20:06:33.690Z,55.11
2023-02-27T20:09:01.595Z,55.15
2023-02-27T20:11:31.025Z,54.69
2023-02-27T20:13:59.220Z,54.54
2023-02-27T20:16:29.832Z,54.76
2023-02-27T20:18:57.977Z,54.76
2023-02-27T20:21:28.638Z,54.89
2023-02-27T20:23:58.309Z,55.18
2023-02-27T20:26:34.966Z,55.26
2023-02-27T20:29:07.069Z,55.56
2023-02-27T20:31:36.295Z,55.86
2023-02-27T20:34:06.232Z,56.04
2023-02-27T20:36:35.374Z,56.07
2023-02-27T20:39:04.536Z,56.56
2023-02-27T20:41:34.579Z,56.41
2023-02-27T20:44:04.390Z,56.37
2023-02-27T20:46:32.673Z,56.37
2023-02-27T20:49:02.495Z,56.48
2023-02-27T20:51:42.131Z,56.67
2023-02-27T20:54:13.609Z,56.69
2023-02-27T20:56:43.201Z,56.79
2023-02-27T20:59:18.938Z,56.89
2023-02-27T21:01:51.589Z,56.68
2023-02-27T21:04:20.065Z,56.64
2023-02-27T21:06:48.442Z,56.77
2023-02-27T21:09:16.782Z,56.39
2023-02-27T21:11:44.892Z,56.29
2023-02-27T21:14:12.727Z,56.11
2023-02-27T21:16:40.706Z,56.00
2023-02-27T21:19:08.713Z,55.71
2023-02-27T21:21:37.170Z,55.46
2023-02-27T21:24:06.462Z,55.36
2023-02-27T21:26:40.286Z,55.44
2023-02-27T21:29:13.801Z,55.59
2023-02-27T21:31:45.219Z,55.42
2023-02-27T21:34:15.778Z,55.46
2023-02-27T21:36:45.259Z,55.62
2023-02-27T21:39:16.136Z,56.08
2023-02-27T21:41:44.582Z,56.38
2023-02-27T21:44:15.065Z,56.76
2023-02-27T21:46:43.410Z,56.74
2023-02-27T21:49:17.525Z,56.61
2023-02-27T21:51:46.724Z,57.11
2023-02-27T21:54:15.483Z,57.25
2023-02-27T21:56:45.638Z,57.19
2023-02-27T21:59:14.671Z,57.22
2023-02-27T22:01:47.357Z,57.17
2023-02-27T22:04:17.094Z,57.17
2023-02-27T22:06:45.443Z,57.00
2023-02-27T22:09:13.759Z,56.63
2023-02-27T22:11:41.856Z,56.09
2023-02-27T22:14:10.699Z,55.44
2023-02-27T22:16:38.921Z,55.72
2023-02-27T22:19:08.631Z,55.82
2023-02-27T22:21:37.694Z,55.77
2023-02-27T22:24:06.837Z,55.95
2023-02-27T22:26:35.105Z,56.54
2023-02-27T22:29:04.701Z,56.83
2023-02-27T22:31:35.238Z,57.25
2023-02-27T22:34:18.606Z,57.62
2023-02-27T22:36:52.669Z,57.69
2023-02-27T22:39:21.508Z,57.54
2023-02-27T22:41:49.527Z,57.36
2023-02-27T22:44:17.290Z,57.25
2023-02-27T22:46:47.998Z,57.57
2023-02-27T22:49:21.399Z,57.78
2023-02-27T22:51:51.189Z,57.82
2023-02-27T22:54:21.910Z,57.76
2023-02-27T22:56:51.515Z,57.90
2023-02-27T22:59:19.872Z,58.15
2023-02-27T23:01:48.779Z,57.86
2023-02-27T23:04:20.852Z,57.88
2023-02-27T23:06:49.544Z,58.06
2023-02-27T23:09:20.600Z,58.19
2023-02-27T23:11:48.553Z,57.93
2023-02-27T23:14:17.239Z,58.10
2023-02-27T23:16:45.897Z,57.99
2023-02-27T23:19:16.052Z,57.77
2023-02-27T23:21:43.833Z,57.42
2023-02-27T23:24:14.346Z,57.41
2023-02-27T23:26:44.867Z,57.13
2023-02-27T23:29:12.974Z,57.35
2023-02-27T23:31:42.307Z,57.20
2023-02-27T23:34:10.549Z,56.74
2023-02-27T23:36:38.702Z,56.66
2023-02-27T23:39:07.146Z,56.66
2023-02-27T23:41:34.832Z,57.07
2023-02-27T23:44:21.547Z,57.35
2023-02-27T23:46:49.756Z,56.95
2023-02-27T23:49:17.395Z,56.87
2023-02-27T23:51:45.169Z,57.09
2023-02-27T23:54:12.981Z,57.34
2023-02-27T23:56:40.653Z,57.55
2023-02-27T23:59:08.369Z,57.60
